Time;durP1;ratioP1;P1;durP2;ratioP2;P2;SDS_P1;SDS_P2;PMS_P1;PMS_P2;Temp;Humidity;BMP_temperature;BMP_pressure;BME280_temperature;BME280_humidity;BME280_pressure;Samples;Min_cycle;Max_cycle;Signal;HPM_P1;HPM_P2
2023/04/06 15:47:29;;;;;;;7.73;1.47;;;;;;;;;;4917471;29;20569;-92
2023/04/06 16:35:42;;;;;;;2.50;0.90;;;;;;;;;;4769572;29;20494;-91
2023/04/06 16:59:32;;;;;;;5.80;1.00;;;;;;;;;;4902671;29;20903;-90
2023/04/06 17:05:44;;;;;;;3.23;1.10;;;;;;;;;;4904175;29;20400;-95
2023/04/06 17:12:48;;;;;;;;;;;;;;;;;;;;;
2023/04/06 17:19:04;;;;;;;10.93;1.40;;;;;;;;;;4906396;29;20394;-92
2023/04/06 17:21:32;;;;;;;6.37;1.20;;;;;;;;;;4885713;29;20480;-94
2023/04/06 17:23:59;;;;;;;6.77;1.13;;;;;;;;;;4885467;29;20498;-95
2023/04/06 17:33:28;;;;;;;4.80;1.47;;;;;;;;;;4906836;29;20412;-95
2023/04/06 17:35:55;;;;;;;3.63;0.90;;;;;;;;;;4887501;29;20485;-95
2023/04/06 17:38:23;;;;;;;5.20;1.00;;;;;;;;;;4889081;29;20504;-95
2023/04/06 17:51:36;;;;;;;8.87;1.20;;;;;;;;;;4922900;29;20868;-95
2023/04/06 17:54:30;;;;;;;4.87;0.67;;;;;;;;;;4906039;29;20459;-95
2023/04/06 17:56:59;;;;;;;3.57;1.40;;;;;;;;;;4920880;29;20588;-94
2023/04/06 17:59:26;;;;;;;7.07;1.23;;;;;;;;;;4891415;29;20456;-96
2023/04/06 18:20:48;;;;;;;5.90;0.90;;;;;;;;;;4919640;29;20946;-95
2023/04/06 18:23:16;;;;;;;7.10;1.23;;;;;;;;;;4887658;29;20457;-95
2023/04/06 18:25:45;;;;;;;6.70;0.73;;;;;;;;;;4887645;29;20471;-94
2023/04/06 18:28:33;;;;;;;6.63;0.90;;;;;;;;;;4887552;29;20520;-95
2023/04/06 18:31:04;;;;;;;5.30;1.07;;;;;;;;;;4902735;29;21051;-94
2023/04/06 18:33:33;;;;;;;4.13;1.20;;;;;;;;;;4887567;29;20823;-94
2023/04/06 18:36:01;;;;;;;9.40;1.60;;;;;;;;;;4887028;29;20495;-95
2023/04/06 18:38:49;;;;;;;7.37;1.03;;;;;;;;;;4891862;29;20798;-94
2023/04/06 18:41:20;;;;;;;6.83;1.30;;;;;;;;;;4887609;29;20547;-94
2023/04/06 18:43:49;;;;;;;8.70;1.10;;;;;;;;;;4903195;29;20437;-95
2023/04/06 18:46:32;;;;;;;6.83;1.40;;;;;;;;;;4887542;29;21011;-95
2023/04/06 18:48:59;;;;;;;4.87;1.07;;;;;;;;;;4904477;29;20492;-95
2023/04/06 18:51:27;;;;;;;4.80;1.13;;;;;;;;;;4886998;29;20495;-95
2023/04/06 18:53:55;;;;;;;12.60;1.97;;;;;;;;;;4886927;29;20458;-95
2023/04/06 18:56:27;;;;;;;14.00;2.50;;;;;;;;;;4902290;29;20492;-95
2023/04/06 18:58:57;;;;;;;16.30;2.33;;;;;;;;;;4902566;29;20539;-94
2023/04/06 19:01:27;;;;;;;16.13;2.87;;;;;;;;;;4886721;29;20909;-95
2023/04/06 19:03:55;;;;;;;29.00;2.30;;;;;;;;;;4886881;29;20468;-95
2023/04/06 19:06:27;;;;;;;7.73;1.67;;;;;;;;;;4887411;29;20461;-95
2023/04/06 19:08:57;;;;;;;11.33;1.90;;;;;;;;;;4887354;29;20452;-94
2023/04/06 19:11:26;;;;;;;19.40;2.30;;;;;;;;;;4902648;29;20469;-94
2023/04/06 19:13:55;;;;;;;10.87;2.10;;;;;;;;;;4902006;29;20456;-95
2023/04/06 19:16:26;;;;;;;17.33;2.07;;;;;;;;;;4896560;29;20508;-93
2023/04/06 19:18:55;;;;;;;20.83;3.50;;;;;;;;;;4895702;29;20455;-93
2023/04/06 19:21:24;;;;;;;16.73;4.47;;;;;;;;;;4897671;29;20461;-94
2023/04/06 19:23:55;;;;;;;14.03;3.23;;;;;;;;;;4890633;29;20481;-94
2023/04/06 19:26:26;;;;;;;16.00;2.87;;;;;;;;;;4889579;29;20803;-94
2023/04/06 19:28:54;;;;;;;8.73;1.67;;;;;;;;;;4887246;29;20464;-94
2023/04/06 19:31:22;;;;;;;9.03;1.70;;;;;;;;;;4887083;29;20433;-94
2023/04/06 19:34:16;;;;;;;6.70;1.03;;;;;;;;;;4886880;29;20453;-93
2023/04/06 19:36:44;;;;;;;9.10;1.23;;;;;;;;;;4902181;29;20492;-94
2023/04/06 19:39:16;;;;;;;4.50;1.40;;;;;;;;;;4886438;29;20485;-94
2023/04/06 19:41:44;;;;;;;8.33;1.37;;;;;;;;;;4887427;29;20539;-94
2023/04/06 19:44:12;;;;;;;10.23;2.10;;;;;;;;;;4886928;29;20475;-94
2023/04/06 19:46:45;;;;;;;9.23;1.70;;;;;;;;;;4902801;29;20480;-94
2023/04/06 19:49:13;;;;;;;10.50;1.60;;;;;;;;;;4886527;29;20472;-94
2023/04/06 19:51:41;;;;;;;11.83;1.53;;;;;;;;;;4886247;29;20445;-94
2023/04/06 19:54:09;;;;;;;6.87;1.60;;;;;;;;;;4886643;29;20480;-94
2023/04/06 19:56:38;;;;;;;6.27;1.67;;;;;;;;;;4886273;29;20497;-94
2023/04/06 19:59:06;;;;;;;5.17;1.90;;;;;;;;;;4886645;29;20449;-93
2023/04/06 20:01:34;;;;;;;8.47;2.33;;;;;;;;;;4886432;29;20457;-93
2023/04/06 20:04:02;;;;;;;9.80;1.60;;;;;;;;;;4886126;29;20456;-94
2023/04/06 20:06:31;;;;;;;6.47;1.80;;;;;;;;;;4886288;29;20544;-94
2023/04/06 20:09:15;;;;;;;10.43;1.70;;;;;;;;;;4868430;29;20965;-93
2023/04/06 20:11:43;;;;;;;8.97;2.17;;;;;;;;;;4884582;29;20477;-94
2023/04/06 20:14:17;;;;;;;10.63;2.17;;;;;;;;;;4885419;29;20474;-94
2023/04/06 20:16:58;;;;;;;5.37;1.90;;;;;;;;;;4882793;29;20484;-94
2023/04/06 20:19:26;;;;;;;9.40;1.80;;;;;;;;;;4883165;29;20466;-93
2023/04/06 20:21:54;;;;;;;11.70;2.13;;;;;;;;;;4892525;29;20460;-94
2023/04/06 20:31:20;;;;;;;8.73;2.10;;;;;;;;;;4920964;29;20435;-93
2023/04/06 20:34:12;;;;;;;11.93;1.80;;;;;;;;;;4907113;29;20511;-92
2023/04/06 20:36:55;;;;;;;10.23;2.73;;;;;;;;;;4886310;29;20540;-94
2023/04/06 20:42:54;;;;;;;11.13;1.93;;;;;;;;;;4902805;29;20537;-93
2023/04/06 20:45:42;;;;;;;12.83;2.50;;;;;;;;;;4891920;29;20460;-93
2023/04/06 20:51:37;;;;;;;6.50;2.70;;;;;;;;;;4920386;29;20444;-94
2023/04/06 20:54:21;;;;;;;8.53;2.43;;;;;;;;;;4889370;29;20543;-94
2023/04/06 20:57:03;;;;;;;13.50;3.70;;;;;;;;;;4903895;29;20492;-93
2023/04/06 20:59:34;;;;;;;11.93;2.70;;;;;;;;;;4890962;29;20825;-93
2023/04/06 21:02:14;;;;;;;14.00;2.97;;;;;;;;;;4904849;29;20452;-93
2023/04/06 21:04:57;;;;;;;13.13;2.53;;;;;;;;;;4917840;29;20441;-92
2023/04/06 21:18:12;;;;;;;17.07;2.87;;;;;;;;;;4901235;29;20468;-93
2023/04/06 21:20:43;;;;;;;17.30;3.10;;;;;;;;;;4897412;29;20440;-92
2023/04/06 21:23:45;;;;;;;17.10;3.07;;;;;;;;;;4881212;29;20545;-92
2023/04/06 21:26:23;;;;;;;15.13;3.40;;;;;;;;;;4892446;29;20453;-93
2023/04/06 21:29:25;;;;;;;17.73;3.33;;;;;;;;;;4899867;29;20464;-93
2023/04/06 21:32:13;;;;;;;17.87;2.83;;;;;;;;;;4900129;29;21197;-93
2023/04/06 21:34:45;;;;;;;15.30;2.20;;;;;;;;;;4899328;29;21023;-93
2023/04/06 21:37:26;;;;;;;12.33;2.80;;;;;;;;;;4899544;29;20486;-93
2023/04/06 21:40:19;;;;;;;15.87;3.27;;;;;;;;;;4884487;29;20453;-93
2023/04/06 21:42:56;;;;;;;11.40;2.37;;;;;;;;;;4891824;29;20450;-93
2023/04/06 21:46:00;;;;;;;12.43;2.60;;;;;;;;;;4899597;29;20509;-92
2023/04/06 21:48:29;;;;;;;8.03;2.20;;;;;;;;;;4892141;29;20819;-92
2023/04/06 21:51:11;;;;;;;5.20;2.23;;;;;;;;;;4884345;29;20441;-93
2023/04/06 21:57:08;;;;;;;33.87;2.70;;;;;;;;;;4899577;29;20476;-93
2023/04/06 21:59:58;;;;;;;6.73;1.90;;;;;;;;;;4899029;29;20457;-92
2023/04/06 22:02:55;;;;;;;13.13;2.60;;;;;;;;;;4899071;29;20482;-92
2023/04/06 22:05:33;;;;;;;7.27;2.00;;;;;;;;;;4899261;29;20940;-93
2023/04/06 22:08:20;;;;;;;7.60;2.30;;;;;;;;;;4898811;29;20460;-93
2023/04/06 22:11:08;;;;;;;8.83;2.03;;;;;;;;;;4899000;29;20617;-93
2023/04/06 22:13:56;;;;;;;6.90;1.93;;;;;;;;;;4883059;29;20552;-93
2023/04/06 22:19:52;;;;;;;11.03;2.00;;;;;;;;;;4900439;29;20879;-92
2023/04/06 22:22:21;;;;;;;7.00;2.07;;;;;;;;;;4868357;29;20545;-93
2023/04/06 22:25:28;;;;;;;9.43;2.00;;;;;;;;;;4869536;29;20464;-93
2023/04/06 22:27:59;;;;;;;11.90;2.30;;;;;;;;;;4865662;29;20458;-93
2023/04/06 22:33:49;;;;;;;12.67;2.00;;;;;;;;;;4892140;29;20453;-92
2023/04/06 22:39:41;;;;;;;10.23;2.40;;;;;;;;;;4900446;29;20429;-93
2023/04/06 22:42:21;;;;;;;8.77;2.30;;;;;;;;;;4883016;29;20449;-94
2023/04/06 22:44:53;;;;;;;12.03;3.10;;;;;;;;;;4883542;29;20538;-93
2023/04/06 22:47:43;;;;;;;9.23;2.40;;;;;;;;;;4868385;29;20544;-93
2023/04/06 22:53:18;;;;;;;10.33;2.87;;;;;;;;;;4889835;29;20470;-93
2023/04/06 22:56:02;;;;;;;11.83;3.20;;;;;;;;;;4867648;29;20458;-92
2023/04/06 23:01:58;;;;;;;10.30;2.30;;;;;;;;;;4899092;29;20955;-93
2023/04/06 23:10:46;;;;;;;6.10;1.73;;;;;;;;;;4899431;29;20556;-92
2023/04/06 23:13:13;;;;;;;5.73;3.00;;;;;;;;;;4867465;29;20576;-93
2023/04/06 23:22:31;;;;;;;7.97;2.20;;;;;;;;;;4899886;29;20482;-93
2023/04/06 23:28:26;;;;;;;15.03;2.53;;;;;;;;;;4882899;29;20477;-93
2023/04/06 23:30:54;;;;;;;10.93;2.33;;;;;;;;;;4882527;29;20462;-93
2023/04/06 23:33:25;;;;;;;12.83;1.97;;;;;;;;;;4883067;29;20446;-93
2023/04/06 23:35:53;;;;;;;8.93;2.87;;;;;;;;;;4882768;29;20493;-93
2023/04/06 23:38:22;;;;;;;9.63;1.80;;;;;;;;;;4882735;29;20454;-93
2023/04/06 23:41:10;;;;;;;8.43;2.30;;;;;;;;;;4882833;29;20839;-93
2023/04/06 23:47:06;;;;;;;6.33;2.23;;;;;;;;;;4899220;29;20472;-93
2023/04/06 23:49:55;;;;;;;13.20;2.27;;;;;;;;;;4882581;29;20460;-93
2023/04/06 23:58:43;;;;;;;22.93;5.67;;;;;;;;;;4898501;29;20453;-93
